Time;durP1;ratioP1;P1;durP2;ratioP2;P2;SDS_P1;SDS_P2;PMS_P1;PMS_P2;Temp;Humidity;BMP_temperature;BMP_pressure;BME280_temperature;BME280_humidity;BME280_pressure;Samples;Min_cycle;Max_cycle;Signal;HPM_P1;HPM_P2
2023/03/04 00:00:26;;;;;;;30.47;17.00;;;;;;;;;;6152083;23;20506;-79
2023/03/04 00:03:31;;;;;;;27.03;15.97;;;;;;;;;;6134147;23;20515;-78
2023/03/04 00:06:35;;;;;;;27.37;16.77;;;;;;;;;;6149974;23;20510;-78
2023/03/04 00:09:39;;;;;;;28.57;16.60;;;;;;;;;;6145643;23;20581;-78
2023/03/04 00:12:43;;;;;;;28.10;15.10;;;;;;;;;;6133614;23;20510;-79
2023/03/04 00:15:48;;;;;;;28.50;15.57;;;;;;;;;;6151310;23;20856;-77
2023/03/04 00:18:55;;;;;;;28.60;15.40;;;;;;;;;;6151913;23;20506;-78
2023/03/04 00:22:00;;;;;;;27.27;15.03;;;;;;;;;;6152129;23;20511;-78
2023/03/04 00:25:05;;;;;;;29.37;16.80;;;;;;;;;;6151920;23;20806;-79
2023/03/04 00:28:09;;;;;;;34.37;16.97;;;;;;;;;;6126632;23;20582;-78
2023/03/04 00:31:13;;;;;;;29.93;17.40;;;;;;;;;;6150116;23;20814;-78
2023/03/04 00:34:18;;;;;;;27.10;15.53;;;;;;;;;;6157766;23;20601;-78
2023/03/04 00:37:22;;;;;;;32.30;16.50;;;;;;;;;;6129406;23;20626;-78
2023/03/04 00:40:27;;;;;;;31.50;17.07;;;;;;;;;;6133242;23;20513;-78
2023/03/04 00:43:32;;;;;;;27.77;16.13;;;;;;;;;;6123648;23;20556;-78
2023/03/04 00:46:36;;;;;;;27.87;14.87;;;;;;;;;;6122472;23;20564;-78
2023/03/04 00:49:40;;;;;;;29.63;16.57;;;;;;;;;;6131973;23;20513;-78
2023/03/04 00:52:44;;;;;;;30.07;16.33;;;;;;;;;;6149721;23;20832;-78
2023/03/04 00:55:49;;;;;;;30.80;15.67;;;;;;;;;;6132095;23;20509;-78
2023/03/04 00:58:53;;;;;;;30.77;16.30;;;;;;;;;;6151060;23;20513;-78
2023/03/04 01:01:58;;;;;;;24.47;14.77;;;;;;;;;;6132602;23;20517;-78
2023/03/04 01:05:02;;;;;;;28.63;15.63;;;;;;;;;;6148973;23;20512;-78
2023/03/04 01:08:07;;;;;;;31.37;16.30;;;;;;;;;;6141061;23;20584;-78
2023/03/04 01:11:11;;;;;;;30.03;16.23;;;;;;;;;;6147716;23;20513;-78
2023/03/04 01:14:16;;;;;;;29.70;17.30;;;;;;;;;;6129909;23;20568;-78
2023/03/04 01:17:20;;;;;;;26.13;15.67;;;;;;;;;;6143685;23;20587;-78
2023/03/04 01:20:25;;;;;;;26.20;15.33;;;;;;;;;;6130454;23;20509;-78
2023/03/04 01:23:30;;;;;;;28.67;15.73;;;;;;;;;;6130924;23;20512;-78
2023/03/04 01:26:34;;;;;;;27.60;15.33;;;;;;;;;;6129294;23;20529;-78
2023/03/04 01:29:39;;;;;;;30.33;15.50;;;;;;;;;;6146786;23;20863;-78
2023/03/04 01:32:43;;;;;;;28.90;15.57;;;;;;;;;;6130275;23;20514;-78
2023/03/04 01:35:47;;;;;;;27.10;15.93;;;;;;;;;;6144964;23;20525;-78
2023/03/04 01:38:51;;;;;;;26.73;15.30;;;;;;;;;;6145554;23;20512;-78
2023/03/04 01:41:56;;;;;;;28.40;15.37;;;;;;;;;;6146092;23;21138;-78
2023/03/04 01:45:01;;;;;;;30.53;15.47;;;;;;;;;;6129485;23;20509;-78
2023/03/04 01:48:08;;;;;;;25.53;15.07;;;;;;;;;;6122678;23;20592;-78
2023/03/04 01:51:15;;;;;;;27.93;16.63;;;;;;;;;;6121885;23;20564;-78
2023/03/04 01:54:21;;;;;;;29.83;16.70;;;;;;;;;;6148449;23;20568;-78
2023/03/04 01:57:25;;;;;;;34.07;17.57;;;;;;;;;;6127887;23;20583;-79
2023/03/04 02:00:32;;;;;;;32.53;16.83;;;;;;;;;;6132455;23;20521;-78
2023/03/04 02:03:37;;;;;;;30.70;15.93;;;;;;;;;;6151029;23;20883;-78
2023/03/04 02:06:42;;;;;;;32.30;16.93;;;;;;;;;;6132348;23;20512;-79
2023/03/04 02:09:46;;;;;;;31.63;16.30;;;;;;;;;;6144190;23;20580;-78
2023/03/04 02:12:51;;;;;;;29.47;16.10;;;;;;;;;;6131946;23;21057;-78
2023/03/04 02:15:56;;;;;;;29.57;15.70;;;;;;;;;;6132795;23;20860;-78
2023/03/04 02:19:00;;;;;;;28.80;16.27;;;;;;;;;;6122635;23;21117;-79
2023/03/04 02:22:05;;;;;;;27.80;14.97;;;;;;;;;;6132830;23;20516;-79
2023/03/04 02:25:20;;;;;;;28.77;16.10;;;;;;;;;;6132604;23;20569;-78
2023/03/04 02:28:25;;;;;;;28.37;16.10;;;;;;;;;;6142223;23;20588;-78
2023/03/04 02:31:35;;;;;;;31.13;17.33;;;;;;;;;;6132025;23;20524;-78
2023/03/04 02:34:45;;;;;;;27.07;15.90;;;;;;;;;;6132139;23;20839;-78
2023/03/04 02:37:51;;;;;;;27.73;15.33;;;;;;;;;;6121800;23;20596;-79
2023/03/04 02:40:57;;;;;;;31.87;15.63;;;;;;;;;;6135128;23;20513;-79
2023/03/04 02:44:13;;;;;;;30.10;15.13;;;;;;;;;;6145043;23;20675;-78
2023/03/04 02:47:18;;;;;;;29.77;16.53;;;;;;;;;;6134235;23;20588;-78
2023/03/04 02:50:24;;;;;;;27.40;16.20;;;;;;;;;;6127129;23;20560;-78
2023/03/04 02:53:29;;;;;;;28.83;14.53;;;;;;;;;;6154366;23;20513;-78
2023/03/04 02:56:33;;;;;;;30.73;16.67;;;;;;;;;;6136119;23;20570;-77
2023/03/04 02:59:39;;;;;;;27.77;16.20;;;;;;;;;;6154828;23;20517;-78
2023/03/04 03:02:43;;;;;;;28.73;16.33;;;;;;;;;;6136249;23;20513;-78
2023/03/04 03:05:48;;;;;;;31.13;17.03;;;;;;;;;;6152985;23;20568;-79
2023/03/04 03:08:53;;;;;;;30.83;15.90;;;;;;;;;;6129658;23;20584;-78
2023/03/04 03:11:57;;;;;;;32.57;16.07;;;;;;;;;;6091234;23;20512;-78
2023/03/04 03:15:02;;;;;;;27.77;17.03;;;;;;;;;;6090993;23;20523;-78
2023/03/04 03:18:09;;;;;;;26.90;15.47;;;;;;;;;;6081547;23;20594;-77
2023/03/04 03:21:13;;;;;;;31.03;17.30;;;;;;;;;;6107506;23;20529;-77
2023/03/04 03:24:19;;;;;;;33.07;16.83;;;;;;;;;;6091159;23;21109;-78
2023/03/04 03:27:23;;;;;;;31.77;17.07;;;;;;;;;;6087556;23;20598;-78
2023/03/04 03:30:29;;;;;;;31.30;16.93;;;;;;;;;;6123563;23;20513;-78
2023/03/04 03:33:34;;;;;;;33.40;17.10;;;;;;;;;;6123123;23;20525;-78
2023/03/04 03:36:38;;;;;;;34.53;17.27;;;;;;;;;;6090064;23;20527;-77
2023/03/04 03:39:42;;;;;;;33.97;15.80;;;;;;;;;;6080759;23;20568;-77
2023/03/04 03:42:46;;;;;;;33.47;16.40;;;;;;;;;;6090046;23;20514;-78
2023/03/04 03:45:51;;;;;;;27.97;16.60;;;;;;;;;;6107040;23;21121;-77
2023/03/04 03:48:55;;;;;;;29.30;16.53;;;;;;;;;;6090490;23;20514;-78
2023/03/04 03:51:59;;;;;;;31.80;17.67;;;;;;;;;;6090417;23;20529;-78
2023/03/04 03:55:04;;;;;;;32.20;16.60;;;;;;;;;;6081098;23;20561;-78
2023/03/04 03:58:08;;;;;;;32.57;17.20;;;;;;;;;;6100692;23;20580;-78
2023/03/04 04:01:13;;;;;;;36.67;19.03;;;;;;;;;;6125209;23;21085;-77
2023/03/04 04:04:17;;;;;;;35.37;19.63;;;;;;;;;;6097962;23;20613;-78
2023/03/04 04:07:21;;;;;;;41.27;19.33;;;;;;;;;;6087005;23;20583;-78
2023/03/04 04:10:26;;;;;;;38.63;20.40;;;;;;;;;;6118715;23;20571;-77
2023/03/04 04:13:30;;;;;;;35.20;20.20;;;;;;;;;;6154465;23;20513;-78
2023/03/04 04:16:34;;;;;;;37.83;19.97;;;;;;;;;;6154172;23;20504;-78
2023/03/04 04:19:40;;;;;;;35.40;19.43;;;;;;;;;;6154500;23;20509;-78
2023/03/04 04:22:44;;;;;;;31.87;18.03;;;;;;;;;;6144622;23;20569;-78
2023/03/04 04:25:48;;;;;;;32.87;18.23;;;;;;;;;;6144907;23;20673;-78
2023/03/04 04:28:53;;;;;;;36.07;18.77;;;;;;;;;;6125685;23;20568;-77
2023/03/04 04:31:57;;;;;;;35.00;18.63;;;;;;;;;;6126022;23;20560;-78
2023/03/04 04:35:01;;;;;;;30.50;17.53;;;;;;;;;;6152203;23;20508;-77
2023/03/04 04:38:07;;;;;;;32.07;17.80;;;;;;;;;;6125497;23;20587;-77
2023/03/04 04:41:24;;;;;;;30.73;17.57;;;;;;;;;;6152306;23;20517;-77
2023/03/04 04:44:29;;;;;;;38.43;18.20;;;;;;;;;;6135586;23;20568;-77
2023/03/04 04:47:33;;;;;;;40.00;18.73;;;;;;;;;;6130879;23;20592;-78
2023/03/04 04:50:38;;;;;;;34.67;18.03;;;;;;;;;;6153427;23;20516;-78
2023/03/04 04:53:42;;;;;;;35.23;18.17;;;;;;;;;;6126150;23;20564;-77
2023/03/04 04:56:46;;;;;;;34.77;18.57;;;;;;;;;;6126047;23;20592;-77
2023/03/04 04:59:51;;;;;;;32.00;17.40;;;;;;;;;;6136149;23;20512;-77
2023/03/04 05:02:55;;;;;;;32.33;18.00;;;;;;;;;;6152788;23;20517;-78
2023/03/04 05:06:00;;;;;;;34.43;17.83;;;;;;;;;;6169766;23;20564;-78
2023/03/04 05:09:04;;;;;;;33.63;19.17;;;;;;;;;;6135656;23;20568;-78
2023/03/04 05:12:08;;;;;;;33.47;19.00;;;;;;;;;;6096520;23;20570;-78
2023/03/04 05:15:13;;;;;;;34.73;19.53;;;;;;;;;;6089542;23;20505;-78
2023/03/04 05:18:19;;;;;;;35.47;19.57;;;;;;;;;;6096503;23;20593;-78
2023/03/04 05:21:23;;;;;;;39.20;20.27;;;;;;;;;;6113904;23;21145;-78
2023/03/04 05:24:27;;;;;;;36.93;20.47;;;;;;;;;;6105819;23;20517;-78
2023/03/04 05:27:32;;;;;;;41.47;20.63;;;;;;;;;;6086473;23;20588;-77
2023/03/04 05:30:40;;;;;;;39.90;20.80;;;;;;;;;;6106997;23;20526;-78
2023/03/04 05:33:44;;;;;;;44.97;22.80;;;;;;;;;;6123085;23;20542;-78
2023/03/04 05:36:49;;;;;;;42.13;22.03;;;;;;;;;;6101671;23;20588;-78
2023/03/04 05:39:53;;;;;;;41.47;21.90;;;;;;;;;;6104587;23;20844;-77
2023/03/04 05:42:58;;;;;;;41.87;22.70;;;;;;;;;;6105624;23;20518;-78
2023/03/04 05:46:03;;;;;;;44.23;23.30;;;;;;;;;;6088999;23;20569;-78
2023/03/04 05:49:07;;;;;;;39.43;21.63;;;;;;;;;;6106833;23;20514;-79
2023/03/04 05:52:11;;;;;;;40.77;20.87;;;;;;;;;;6107946;23;20522;-78
2023/03/04 05:55:16;;;;;;;41.73;22.03;;;;;;;;;;6107197;23;20518;-78
2023/03/04 05:58:21;;;;;;;39.03;21.23;;;;;;;;;;6083363;23;20593;-79
2023/03/04 06:01:25;;;;;;;42.37;21.07;;;;;;;;;;6124787;23;20514;-79
2023/03/04 06:04:29;;;;;;;42.87;21.73;;;;;;;;;;6091613;23;20585;-77
2023/03/04 06:07:34;;;;;;;43.23;21.63;;;;;;;;;;6086184;23;20588;-78
2023/03/04 06:10:40;;;;;;;43.00;22.07;;;;;;;;;;6120040;23;20587;-78
2023/03/04 06:13:44;;;;;;;42.97;21.57;;;;;;;;;;6152298;23;20521;-78
2023/03/04 06:16:48;;;;;;;36.73;20.00;;;;;;;;;;6132586;23;20580;-78
2023/03/04 06:19:52;;;;;;;39.47;21.67;;;;;;;;;;6134733;23;20497;-78
2023/03/04 06:22:57;;;;;;;43.80;22.80;;;;;;;;;;6152043;23;20512;-78
2023/03/04 06:26:01;;;;;;;46.07;21.77;;;;;;;;;;6134149;23;20564;-78
2023/03/04 06:29:05;;;;;;;40.30;21.13;;;;;;;;;;6133760;23;20517;-78
2023/03/04 06:32:09;;;;;;;40.63;21.70;;;;;;;;;;6151391;23;20509;-79
2023/03/04 06:35:15;;;;;;;44.10;22.33;;;;;;;;;;6134566;23;20517;-78
2023/03/04 06:38:19;;;;;;;45.50;24.80;;;;;;;;;;6145327;23;21088;-78
2023/03/04 06:41:24;;;;;;;38.73;22.20;;;;;;;;;;6152634;23;20506;-78
2023/03/04 06:44:28;;;;;;;41.03;20.93;;;;;;;;;;6135094;23;20849;-77
2023/03/04 06:47:32;;;;;;;40.40;19.53;;;;;;;;;;6147443;23;20578;-78
2023/03/04 06:50:38;;;;;;;34.27;19.70;;;;;;;;;;6132003;23;20507;-78
2023/03/04 06:53:43;;;;;;;45.60;23.53;;;;;;;;;;6131087;23;20511;-77
2023/03/04 06:56:47;;;;;;;45.37;23.37;;;;;;;;;;6138817;23;20589;-77
2023/03/04 06:59:52;;;;;;;41.37;21.33;;;;;;;;;;6137869;23;20518;-77
2023/03/04 07:02:57;;;;;;;46.97;23.87;;;;;;;;;;6137192;23;20507;-77
2023/03/04 07:06:02;;;;;;;38.50;20.63;;;;;;;;;;6150722;23;20574;-77
2023/03/04 07:09:06;;;;;;;37.77;18.33;;;;;;;;;;6112429;23;20566;-78
2023/03/04 07:12:10;;;;;;;33.70;19.10;;;;;;;;;;6077610;23;20507;-78
2023/03/04 07:15:15;;;;;;;36.03;19.53;;;;;;;;;;6094173;23;20511;-77
2023/03/04 07:18:19;;;;;;;33.33;18.17;;;;;;;;;;6067947;23;20578;-79
2023/03/04 07:21:23;;;;;;;36.60;20.27;;;;;;;;;;6103419;23;20558;-78
2023/03/04 07:24:27;;;;;;;30.47;18.20;;;;;;;;;;6111520;23;20503;-78
2023/03/04 07:27:31;;;;;;;30.70;17.67;;;;;;;;;;6072987;23;21141;-78
2023/03/04 07:30:35;;;;;;;33.47;19.10;;;;;;;;;;6112434;23;20519;-78
2023/03/04 07:33:39;;;;;;;33.20;18.27;;;;;;;;;;6093339;23;20508;-77
2023/03/04 07:36:43;;;;;;;31.40;17.10;;;;;;;;;;6092243;23;20823;-78
2023/03/04 07:39:47;;;;;;;28.47;17.50;;;;;;;;;;6096079;23;20507;-78
2023/03/04 07:42:54;;;;;;;28.50;17.03;;;;;;;;;;6097212;23;20507;-77
2023/03/04 07:46:00;;;;;;;30.17;18.03;;;;;;;;;;6095353;23;20578;-78
2023/03/04 07:49:04;;;;;;;26.47;16.87;;;;;;;;;;6095732;23;20504;-78
2023/03/04 07:52:08;;;;;;;27.90;16.93;;;;;;;;;;6083458;23;20519;-79
2023/03/04 07:55:14;;;;;;;27.07;15.60;;;;;;;;;;6094015;23;20555;-79
2023/03/04 07:58:18;;;;;;;29.13;15.87;;;;;;;;;;6111540;23;20195;-80
2023/03/04 08:01:31;;;;;;;27.87;15.47;;;;;;;;;;6100776;23;20507;-80
2023/03/04 08:04:35;;;;;;;22.60;14.07;;;;;;;;;;6118897;23;20597;-80
2023/03/04 08:07:39;;;;;;;23.67;14.47;;;;;;;;;;6095338;23;20190;-79
2023/03/04 08:10:44;;;;;;;24.53;14.33;;;;;;;;;;6132753;23;20182;-80
2023/03/04 08:13:49;;;;;;;24.57;13.77;;;;;;;;;;6128702;23;20154;-81
2023/03/04 08:16:53;;;;;;;22.57;14.00;;;;;;;;;;6142644;23;20186;-81
2023/03/04 08:19:57;;;;;;;22.93;12.70;;;;;;;;;;6127389;23;20465;-81
2023/03/04 08:23:02;;;;;;;21.93;13.50;;;;;;;;;;6122268;23;20154;-84
2023/03/04 08:26:12;;;;;;;21.80;12.13;;;;;;;;;;6126455;23;20182;-81
2023/03/04 08:29:24;;;;;;;20.73;13.40;;;;;;;;;;6141151;23;20154;-79
2023/03/04 08:32:28;;;;;;;22.53;13.27;;;;;;;;;;6140772;23;20155;-85
2023/03/04 08:35:36;;;;;;;22.60;13.00;;;;;;;;;;6123022;23;20158;-81
2023/03/04 08:38:40;;;;;;;20.80;12.57;;;;;;;;;;6146510;23;20190;-81
2023/03/04 08:41:45;;;;;;;22.83;12.10;;;;;;;;;;6122845;23;20154;-81
2023/03/04 08:44:49;;;;;;;20.00;12.17;;;;;;;;;;6130332;23;20174;-82
2023/03/04 08:47:54;;;;;;;17.57;11.23;;;;;;;;;;6113418;23;20194;-81
2023/03/04 08:50:58;;;;;;;19.23;11.57;;;;;;;;;;6139567;23;20154;-81
2023/03/04 08:54:04;;;;;;;23.70;12.00;;;;;;;;;;6123161;23;20154;-82
2023/03/04 08:57:08;;;;;;;22.57;13.80;;;;;;;;;;6137151;23;20186;-80
2023/03/04 09:00:13;;;;;;;23.67;13.87;;;;;;;;;;6115944;23;20169;-81
2023/03/04 09:03:19;;;;;;;20.73;12.50;;;;;;;;;;6116423;23;20173;-81
2023/03/04 09:06:23;;;;;;;17.80;11.10;;;;;;;;;;6125008;23;20181;-80
2023/03/04 09:09:28;;;;;;;20.60;11.37;;;;;;;;;;6124630;23;20178;-80
2023/03/04 09:12:32;;;;;;;17.03;9.90;;;;;;;;;;6078575;23;20155;-82
2023/03/04 09:15:37;;;;;;;14.70;8.73;;;;;;;;;;6095038;23;20151;-81
2023/03/04 09:18:42;;;;;;;12.97;8.20;;;;;;;;;;6086189;23;20190;-81
2023/03/04 09:21:46;;;;;;;14.43;9.03;;;;;;;;;;6086609;23;20174;-82
2023/03/04 09:24:50;;;;;;;12.90;8.50;;;;;;;;;;6080130;23;20159;-81
2023/03/04 09:27:54;;;;;;;13.60;8.63;;;;;;;;;;6072275;23;20221;-81
2023/03/04 09:30:58;;;;;;;18.73;9.57;;;;;;;;;;6095825;23;20466;-81
2023/03/04 09:34:03;;;;;;;15.30;9.40;;;;;;;;;;6087244;23;20167;-81
2023/03/04 09:37:07;;;;;;;14.07;8.63;;;;;;;;;;6069899;23;20190;-82
2023/03/04 09:40:23;;;;;;;16.90;9.03;;;;;;;;;;6069245;23;20170;-80
2023/03/04 09:43:30;;;;;;;16.93;9.37;;;;;;;;;;6078228;23;20467;-81
2023/03/04 09:46:38;;;;;;;14.60;8.77;;;;;;;;;;6077105;23;20490;-82
2023/03/04 09:49:47;;;;;;;14.30;8.93;;;;;;;;;;6078681;23;20159;-80
2023/03/04 09:52:57;;;;;;;13.93;8.57;;;;;;;;;;6112154;23;20159;-82
2023/03/04 09:56:02;;;;;;;23.40;10.60;;;;;;;;;;6071018;23;20171;-82
2023/03/04 09:59:13;;;;;;;16.43;10.00;;;;;;;;;;6096377;23;20154;-83
2023/03/04 10:02:28;;;;;;;12.57;8.27;;;;;;;;;;6077465;23;20159;-82
2023/03/04 10:05:38;;;;;;;19.83;10.40;;;;;;;;;;6069109;23;20482;-82
2023/03/04 10:09:10;;;;;;;13.53;7.67;;;;;;;;;;6071646;23;20198;-82
2023/03/04 10:12:20;;;;;;;15.37;9.00;;;;;;;;;;6065249;23;20155;-83
2023/03/04 10:15:45;;;;;;;15.90;9.87;;;;;;;;;;6080192;23;20156;-84
2023/03/04 10:19:29;;;;;;;16.90;10.50;;;;;;;;;;6070386;23;20191;-84
2023/03/04 10:22:36;;;;;;;15.47;9.30;;;;;;;;;;6081471;23;20174;-82
2023/03/04 10:25:45;;;;;;;13.63;8.90;;;;;;;;;;6095645;23;20159;-82
2023/03/04 10:28:49;;;;;;;14.60;9.00;;;;;;;;;;6069623;23;20194;-83
2023/03/04 10:31:55;;;;;;;13.00;8.43;;;;;;;;;;6078590;23;20155;-82
2023/03/04 10:34:59;;;;;;;18.40;10.30;;;;;;;;;;6079372;23;20597;-85
2023/03/04 10:38:12;;;;;;;64.97;30.13;;;;;;;;;;6073528;23;20505;-82
2023/03/04 10:41:21;;;;;;;25.70;14.30;;;;;;;;;;6097010;23;20159;-86
2023/03/04 10:44:26;;;;;;;24.33;12.93;;;;;;;;;;6080257;23;20155;-83
2023/03/04 10:47:31;;;;;;;19.57;11.47;;;;;;;;;;6103218;23;20202;-84
2023/03/04 10:50:36;;;;;;;17.00;10.57;;;;;;;;;;6080561;23;20159;-83
2023/03/04 10:53:42;;;;;;;16.27;9.07;;;;;;;;;;6096698;23;20152;-83
2023/03/04 10:57:05;;;;;;;14.47;8.97;;;;;;;;;;6078239;23;20151;-84
2023/03/04 11:00:25;;;;;;;17.57;9.47;;;;;;;;;;6081485;23;20159;-86
2023/03/04 11:03:31;;;;;;;16.17;10.43;;;;;;;;;;6079631;23;20159;-84
2023/03/04 11:06:40;;;;;;;17.60;10.50;;;;;;;;;;6077693;23;20183;-82
2023/03/04 11:09:44;;;;;;;20.37;12.03;;;;;;;;;;6088230;23;20177;-82
2023/03/04 11:12:57;;;;;;;22.37;11.90;;;;;;;;;;6126557;23;20154;-82
2023/03/04 11:16:24;;;;;;;29.37;14.87;;;;;;;;;;6127142;23;20154;-82
2023/03/04 11:19:36;;;;;;;21.90;12.60;;;;;;;;;;6125478;23;20151;-82
2023/03/04 11:22:42;;;;;;;20.20;12.47;;;;;;;;;;6125591;23;20469;-84
2023/03/04 11:26:09;;;;;;;20.27;12.07;;;;;;;;;;6107039;23;20154;-84
2023/03/04 11:29:22;;;;;;;19.43;12.00;;;;;;;;;;6142408;23;20170;-83
2023/03/04 11:32:30;;;;;;;20.33;11.20;;;;;;;;;;6140679;23;20584;-83
2023/03/04 11:35:44;;;;;;;19.20;11.40;;;;;;;;;;6142004;23;20453;-83
2023/03/04 11:38:50;;;;;;;22.87;12.60;;;;;;;;;;6115470;23;20186;-82
2023/03/04 11:42:02;;;;;;;17.77;10.90;;;;;;;;;;6135003;23;20174;-81
2023/03/04 11:45:44;;;;;;;19.93;11.20;;;;;;;;;;6115202;23;20170;-82
2023/03/04 11:49:00;;;;;;;17.60;11.30;;;;;;;;;;6130740;23;20194;-82
2023/03/04 11:52:21;;;;;;;26.07;13.13;;;;;;;;;;6124457;23;20159;-82
2023/03/04 11:55:55;;;;;;;17.17;10.30;;;;;;;;;;6124345;23;20254;-81
2023/03/04 11:59:05;;;;;;;48.67;26.40;;;;;;;;;;6123199;23;20154;-81
2023/03/04 12:02:09;;;;;;;35.00;18.43;;;;;;;;;;6143352;23;20600;-81
2023/03/04 12:05:29;;;;;;;33.97;19.43;;;;;;;;;;6143448;23;20158;-81
2023/03/04 12:08:36;;;;;;;27.93;15.33;;;;;;;;;;6132822;23;20202;-81
2023/03/04 12:11:49;;;;;;;24.73;13.30;;;;;;;;;;6096162;23;20163;-81
2023/03/04 12:15:33;;;;;;;20.63;12.40;;;;;;;;;;6078660;23;20604;-83
2023/03/04 12:18:43;;;;;;;17.50;10.77;;;;;;;;;;6070189;23;20187;-84
2023/03/04 12:22:33;;;;;;;20.53;11.50;;;;;;;;;;6078065;23;20159;-84
2023/03/04 12:25:49;;;;;;;19.23;10.27;;;;;;;;;;6059697;23;20588;-84
2023/03/04 12:28:58;;;;;;;20.93;12.93;;;;;;;;;;6078565;23;20151;-82
2023/03/04 12:32:37;;;;;;;21.63;13.13;;;;;;;;;;6079605;23;20155;-82
2023/03/04 12:35:55;;;;;;;21.23;12.87;;;;;;;;;;6079434;23;20155;-81
2023/03/04 12:39:13;;;;;;;23.00;12.53;;;;;;;;;;6094666;23;20151;-82
2023/03/04 12:42:23;;;;;;;18.90;11.20;;;;;;;;;;6095993;23;20155;-81
2023/03/04 12:45:50;;;;;;;19.57;10.33;;;;;;;;;;6093745;23;20159;-80
2023/03/04 12:48:57;;;;;;;20.47;11.87;;;;;;;;;;6077716;23;20470;-81
2023/03/04 12:52:10;;;;;;;18.67;11.73;;;;;;;;;;6089909;23;20159;-81
2023/03/04 12:55:21;;;;;;;18.97;10.97;;;;;;;;;;6076173;23;20155;-82
2023/03/04 12:58:31;;;;;;;18.83;11.47;;;;;;;;;;6085481;23;20187;-82
2023/03/04 13:01:40;;;;;;;16.87;10.37;;;;;;;;;;6081803;23;20155;-83
2023/03/04 13:05:32;;;;;;;17.23;10.83;;;;;;;;;;6082995;23;20159;-82
2023/03/04 13:08:59;;;;;;;18.83;10.67;;;;;;;;;;6089188;23;20198;-83
2023/03/04 13:12:44;;;;;;;19.33;11.27;;;;;;;;;;6079814;23;20159;-81
2023/03/04 13:16:02;;;;;;;17.70;10.57;;;;;;;;;;6057512;23;20179;-84
2023/03/04 13:19:45;;;;;;;20.73;11.40;;;;;;;;;;6081260;23;20151;-82
2023/03/04 13:23:03;;;;;;;18.93;10.80;;;;;;;;;;6085419;23;20171;-82
2023/03/04 13:26:17;;;;;;;16.03;10.10;;;;;;;;;;6079087;23;20151;-80
2023/03/04 13:29:24;;;;;;;23.07;11.53;;;;;;;;;;6078583;23;20159;-80
2023/03/04 13:32:37;;;;;;;19.67;11.07;;;;;;;;;;6080178;23;20155;-80
2023/03/04 13:35:45;;;;;;;17.50;10.90;;;;;;;;;;6094702;23;20155;-84
2023/03/04 13:39:16;;;;;;;17.13;10.73;;;;;;;;;;6068348;23;20521;-83
2023/03/04 13:42:42;;;;;;;19.50;11.30;;;;;;;;;;6094800;23;20474;-83
2023/03/04 13:45:46;;;;;;;18.27;11.50;;;;;;;;;;6083788;23;20159;-82
2023/03/04 13:48:53;;;;;;;18.33;10.37;;;;;;;;;;6088400;23;20199;-82
2023/03/04 13:51:58;;;;;;;16.70;10.23;;;;;;;;;;6101296;23;20155;-82
2023/03/04 13:55:38;;;;;;;18.53;10.87;;;;;;;;;;6086307;23;20171;-82
2023/03/04 13:58:43;;;;;;;23.53;13.90;;;;;;;;;;6075790;23;20191;-83
2023/03/04 14:01:56;;;;;;;33.13;13.83;;;;;;;;;;6072328;23;20174;-82
2023/03/04 14:05:01;;;;;;;24.50;14.10;;;;;;;;;;6084168;23;20155;-83
2023/03/04 14:08:19;;;;;;;25.03;15.40;;;;;;;;;;6077661;23;20514;-81
2023/03/04 14:11:40;;;;;;;25.83;15.17;;;;;;;;;;6084847;23;20466;-83
2023/03/04 14:14:50;;;;;;;21.03;12.53;;;;;;;;;;6084633;23;20164;-83
2023/03/04 14:18:04;;;;;;;20.60;12.10;;;;;;;;;;6092446;23;20190;-82
2023/03/04 14:21:13;;;;;;;31.90;15.57;;;;;;;;;;6097830;23;20151;-83
2023/03/04 14:24:19;;;;;;;42.87;12.50;;;;;;;;;;6079654;23;20159;-83
2023/03/04 14:27:23;;;;;;;31.93;11.93;;;;;;;;;;6095006;23;20202;-82
2023/03/04 14:30:31;;;;;;;19.33;11.17;;;;;;;;;;6104560;23;20225;-82
2023/03/04 14:33:35;;;;;;;20.83;11.70;;;;;;;;;;6075613;23;20174;-82
2023/03/04 14:36:43;;;;;;;18.60;10.87;;;;;;;;;;6098217;23;20151;-81
2023/03/04 14:39:51;;;;;;;28.43;11.87;;;;;;;;;;6085716;23;20551;-81
2023/03/04 14:43:03;;;;;;;18.97;12.57;;;;;;;;;;6067957;23;20558;-83
2023/03/04 14:46:12;;;;;;;18.23;11.13;;;;;;;;;;6102420;23;20171;-83
2023/03/04 14:49:16;;;;;;;17.30;10.50;;;;;;;;;;6079211;23;20556;-81
2023/03/04 14:52:38;;;;;;;17.90;11.10;;;;;;;;;;6094697;23;20519;-82
2023/03/04 14:55:56;;;;;;;17.87;11.13;;;;;;;;;;6100000;23;20155;-82
2023/03/04 14:59:01;;;;;;;19.43;10.90;;;;;;;;;;6079759;23;20502;-83
2023/03/04 15:02:31;;;;;;;37.30;12.10;;;;;;;;;;6078564;23;20507;-83
2023/03/04 15:05:36;;;;;;;18.60;11.13;;;;;;;;;;6077775;23;20487;-83
2023/03/04 15:08:41;;;;;;;21.50;11.43;;;;;;;;;;6067463;23;20611;-82
2023/03/04 15:12:02;;;;;;;18.77;11.30;;;;;;;;;;6111650;23;20560;-84
2023/03/04 15:15:30;;;;;;;21.23;11.07;;;;;;;;;;6081052;23;20507;-81
2023/03/04 15:18:34;;;;;;;17.60;10.27;;;;;;;;;;6087977;23;20563;-82
2023/03/04 15:21:42;;;;;;;19.47;11.10;;;;;;;;;;6100454;23;20507;-81
2023/03/04 15:24:48;;;;;;;18.43;10.80;;;;;;;;;;6087900;23;20562;-82
2023/03/04 15:27:55;;;;;;;16.07;10.60;;;;;;;;;;6103683;23;20607;-81
2023/03/04 15:30:59;;;;;;;19.53;11.60;;;;;;;;;;6079144;23;20507;-85
2023/03/04 15:34:11;;;;;;;18.23;10.27;;;;;;;;;;6078279;23;20508;-83
2023/03/04 15:37:24;;;;;;;16.13;10.77;;;;;;;;;;6091122;23;20575;-82
2023/03/04 15:40:35;;;;;;;16.90;10.83;;;;;;;;;;6079684;23;20815;-82
2023/03/04 15:43:39;;;;;;;17.10;10.77;;;;;;;;;;6095328;23;20511;-83
2023/03/04 15:46:43;;;;;;;16.47;11.53;;;;;;;;;;6077526;23;20507;-83
2023/03/04 15:49:47;;;;;;;17.97;11.23;;;;;;;;;;6079320;23;20503;-82
2023/03/04 15:52:55;;;;;;;19.77;11.07;;;;;;;;;;6096955;23;20839;-82
2023/03/04 15:56:01;;;;;;;20.10;11.97;;;;;;;;;;6080827;23;20154;-82
2023/03/04 15:59:10;;;;;;;16.37;10.57;;;;;;;;;;6087242;23;20559;-81
2023/03/04 16:02:25;;;;;;;18.57;11.03;;;;;;;;;;6096577;23;20515;-81
2023/03/04 16:05:34;;;;;;;18.43;10.50;;;;;;;;;;6114708;23;20503;-81
2023/03/04 16:08:39;;;;;;;19.13;11.13;;;;;;;;;;6092665;23;20610;-83
2023/03/04 16:11:46;;;;;;;26.90;14.10;;;;;;;;;;6103104;23;20558;-82
2023/03/04 16:14:51;;;;;;;19.50;11.47;;;;;;;;;;6095017;23;20515;-82
2023/03/04 16:17:56;;;;;;;17.23;11.13;;;;;;;;;;6090366;23;20575;-82
2023/03/04 16:21:01;;;;;;;19.30;11.70;;;;;;;;;;6096598;23;20519;-81
2023/03/04 16:24:05;;;;;;;22.37;12.23;;;;;;;;;;6080071;23;20507;-82
2023/03/04 16:27:11;;;;;;;24.70;14.10;;;;;;;;;;6076793;23;20586;-82
2023/03/04 16:30:18;;;;;;;39.70;17.57;;;;;;;;;;6095226;23;20507;-82
2023/03/04 16:33:23;;;;;;;20.83;11.63;;;;;;;;;;6095257;23;20508;-82
2023/03/04 16:36:28;;;;;;;21.53;11.57;;;;;;;;;;6094629;23;20519;-81
2023/03/04 16:39:32;;;;;;;20.17;12.17;;;;;;;;;;6094631;23;20507;-82
2023/03/04 16:42:38;;;;;;;20.10;13.13;;;;;;;;;;6070362;23;21084;-82
2023/03/04 16:45:43;;;;;;;23.07;13.93;;;;;;;;;;6112547;23;20511;-82
2023/03/04 16:48:47;;;;;;;18.47;11.83;;;;;;;;;;6086058;23;20942;-82
2023/03/04 16:51:51;;;;;;;19.07;12.03;;;;;;;;;;6078146;23;20503;-81
2023/03/04 16:54:56;;;;;;;25.70;14.03;;;;;;;;;;6077917;23;20507;-81
2023/03/04 16:58:00;;;;;;;19.90;12.63;;;;;;;;;;6072891;23;20885;-81
2023/03/04 17:01:05;;;;;;;21.20;12.13;;;;;;;;;;6095738;23;20515;-82
2023/03/04 17:04:09;;;;;;;28.33;19.00;;;;;;;;;;6078359;23;20507;-81
2023/03/04 17:07:13;;;;;;;44.37;23.47;;;;;;;;;;6075510;23;20582;-81
2023/03/04 17:10:18;;;;;;;36.27;21.33;;;;;;;;;;6102653;23;20573;-81
2023/03/04 17:13:22;;;;;;;39.17;20.50;;;;;;;;;;6123480;23;20506;-81
2023/03/04 17:16:27;;;;;;;47.13;25.07;;;;;;;;;;6114381;23;20553;-80
2023/03/04 17:19:32;;;;;;;37.60;18.20;;;;;;;;;;6143002;23;20805;-81
2023/03/04 17:22:36;;;;;;;79.57;37.30;;;;;;;;;;6144628;23;20510;-82
2023/03/04 17:25:40;;;;;;;40.03;22.40;;;;;;;;;;6145984;23;20518;-82
2023/03/04 17:28:44;;;;;;;53.50;25.30;;;;;;;;;;6121670;23;20601;-81
2023/03/04 17:31:48;;;;;;;74.83;32.63;;;;;;;;;;6132725;23;20506;-83
2023/03/04 17:34:54;;;;;;;23.67;14.23;;;;;;;;;;6151031;23;20506;-82
2023/03/04 17:37:58;;;;;;;27.23;16.43;;;;;;;;;;6126829;23;20582;-82
2023/03/04 17:41:03;;;;;;;25.50;12.87;;;;;;;;;;6127409;23;20558;-80
2023/03/04 17:44:09;;;;;;;18.87;12.67;;;;;;;;;;6142017;23;20482;-82
2023/03/04 17:47:14;;;;;;;19.57;13.73;;;;;;;;;;6152432;23;20558;-82
2023/03/04 17:50:19;;;;;;;19.87;12.50;;;;;;;;;;6135217;23;20558;-81
2023/03/04 17:53:24;;;;;;;18.63;10.77;;;;;;;;;;6135392;23;20506;-81
2023/03/04 17:56:31;;;;;;;23.07;10.93;;;;;;;;;;6134276;23;20502;-82
2023/03/04 17:59:36;;;;;;;16.97;11.07;;;;;;;;;;6152248;23;20502;-80
2023/03/04 18:02:40;;;;;;;18.10;11.10;;;;;;;;;;6134685;23;20510;-81
2023/03/04 18:05:44;;;;;;;16.60;10.43;;;;;;;;;;6135421;23;20491;-81
2023/03/04 18:08:49;;;;;;;19.13;11.27;;;;;;;;;;6140909;23;20967;-79
2023/03/04 18:11:54;;;;;;;18.70;10.40;;;;;;;;;;6128214;23;20516;-80
2023/03/04 18:14:57;;;;;;;17.43;10.13;;;;;;;;;;6091631;23;20499;-79